Time;durP1;ratioP1;P1;durP2;ratioP2;P2;SDS_P1;SDS_P2;PMS_P1;PMS_P2;Temp;Humidity;BMP_temperature;BMP_pressure;BME280_temperature;BME280_humidity;BME280_pressure;Samples;Min_cycle;Max_cycle;Signal;HPM_P1;HPM_P2
2022/08/17 00:00:44;;;;;;;7.20;6.57;;;-8.00;99.90;;;;;;5078129;28;20197;-71
2022/08/17 00:03:13;;;;;;;8.53;7.73;;;-4.60;99.90;;;;;;5077363;28;20547;-69
2022/08/17 00:05:47;;;;;;;7.83;7.13;;;-5.50;99.90;;;;;;5077739;28;20632;-68
2022/08/17 00:08:15;;;;;;;7.50;6.87;;;-6.40;99.90;;;;;;5098339;28;20196;-69
2022/08/17 00:10:43;;;;;;;9.80;6.97;;;-6.10;99.90;;;;;;5083484;28;20190;-69
2022/08/17 00:13:24;;;;;;;11.07;8.67;;;-5.10;99.90;;;;;;5077367;28;20210;-68
2022/08/17 00:15:53;;;;;;;8.13;7.33;;;-9.60;99.90;;;;;;5077290;28;20190;-68
2022/08/17 00:18:19;;;;;;;7.00;6.43;;;-8.40;99.90;;;;;;5077501;28;20203;-73
2022/08/17 00:20:45;;;;;;;7.67;6.93;;;-8.10;99.90;;;;;;5078429;28;20262;-70
2022/08/17 00:23:15;;;;;;;8.43;7.60;;;-7.60;99.90;;;;;;5077668;28;20186;-69
2022/08/17 00:25:43;;;;;;;7.50;6.80;;;-8.70;99.90;;;;;;5077778;28;20225;-69
2022/08/17 00:28:08;;;;;;;9.47;7.83;;;-9.20;99.90;;;;;;5077558;28;20207;-71
2022/08/17 00:30:35;;;;;;;7.30;6.90;;;-9.30;99.90;;;;;;5077279;28;20226;-69
2022/08/17 00:33:10;;;;;;;6.87;6.33;;;-10.10;99.90;;;;;;5076799;28;20182;-70
2022/08/17 00:35:38;;;;;;;9.73;7.43;;;-10.60;99.90;;;;;;5081918;28;20186;-70
2022/08/17 00:38:08;;;;;;;7.57;6.87;;;-9.30;99.90;;;;;;5077063;28;20206;-69
2022/08/17 00:40:36;;;;;;;9.27;6.47;;;-9.70;99.90;;;;;;5076446;28;20179;-69
2022/08/17 00:43:29;;;;;;;11.90;8.10;;;-11.30;99.90;;;;;;5077370;28;20182;-69
2022/08/17 00:45:57;;;;;;;7.17;6.67;;;-8.50;99.90;;;;;;5077077;28;20183;-69
2022/08/17 00:48:22;;;;;;;8.50;8.00;;;-9.30;99.90;;;;;;5076797;28;20183;-69
2022/08/17 00:51:06;;;;;;;7.90;7.30;;;-8.80;99.90;;;;;;5076495;28;20276;-70
2022/08/17 00:53:36;;;;;;;7.50;7.00;;;-10.20;99.90;;;;;;5076814;28;20205;-69
2022/08/17 00:56:06;;;;;;;13.53;8.00;;;-9.80;99.90;;;;;;5077135;28;20262;-69
2022/08/17 00:58:32;;;;;;;8.87;8.07;;;-8.90;99.90;;;;;;5077003;28;20211;-70
2022/08/17 01:01:00;;;;;;;8.70;7.90;;;-8.30;99.90;;;;;;5076118;28;20179;-69
2022/08/17 01:03:28;;;;;;;7.47;6.77;;;-8.70;99.90;;;;;;5076818;28;20183;-68
2022/08/17 01:05:57;;;;;;;11.07;7.60;;;-7.50;99.90;;;;;;5079870;28;20261;-69
2022/08/17 01:08:26;;;;;;;7.17;6.57;;;-10.90;99.90;;;;;;5076079;28;20252;-69
2022/08/17 01:10:55;;;;;;;8.23;7.53;;;-9.40;99.90;;;;;;5083552;28;20235;-69
2022/08/17 01:13:22;;;;;;;6.87;6.37;;;-9.20;99.90;;;;;;5077145;28;20183;-68
2022/08/17 01:16:01;;;;;;;8.47;7.77;;;-9.40;99.90;;;;;;5076849;28;20198;-69
2022/08/17 01:18:27;;;;;;;8.30;7.60;;;-9.30;99.90;;;;;;5090643;28;20512;-69
2022/08/17 01:20:56;;;;;;;6.60;6.10;;;-8.20;99.90;;;;;;5077102;28;20191;-68
2022/08/17 01:23:24;;;;;;;8.10;7.30;;;-9.30;99.90;;;;;;5076031;28;20224;-69
2022/08/17 01:25:56;;;;;;;7.37;6.67;;;-8.70;99.90;;;;;;5082574;28;20190;-68
2022/08/17 01:28:25;;;;;;;7.27;6.67;;;-9.40;99.90;;;;;;5076896;28;20187;-69
2022/08/17 01:30:54;;;;;;;8.80;7.33;;;-9.30;99.90;;;;;;5078927;28;20206;-69
2022/08/17 01:33:20;;;;;;;7.40;6.70;;;-10.60;99.90;;;;;;5076497;28;20209;-69
2022/08/17 01:35:45;;;;;;;7.27;6.73;;;-9.00;99.90;;;;;;5077415;28;20191;-72
2022/08/17 01:38:11;;;;;;;7.77;7.17;;;-11.70;99.90;;;;;;5075656;28;20206;-69
2022/08/17 01:40:44;;;;;;;7.90;7.10;;;-8.70;99.90;;;;;;5076080;28;20172;-68
2022/08/17 01:43:24;;;;;;;8.47;7.40;;;-7.10;99.90;;;;;;5086087;28;20178;-74
2022/08/17 01:45:52;;;;;;;12.07;8.23;;;-7.20;99.90;;;;;;5080090;28;20177;-77
2022/08/17 01:48:18;;;;;;;8.53;7.67;;;-7.10;99.90;;;;;;5088080;28;20190;-75
2022/08/17 01:50:47;;;;;;;7.40;6.67;;;-8.30;99.90;;;;;;5080010;28;20237;-70
2022/08/17 01:53:18;;;;;;;7.97;7.37;;;-9.50;99.90;;;;;;5080690;28;20671;-69
2022/08/17 01:55:49;;;;;;;7.13;6.50;;;-10.10;99.90;;;;;;5080568;28;20190;-70
2022/08/17 01:58:15;;;;;;;8.10;6.27;;;-10.10;99.90;;;;;;5079554;28;20260;-70
2022/08/17 02:00:44;;;;;;;7.37;6.87;;;-9.60;99.90;;;;;;5079951;28;20187;-70
2022/08/17 02:03:09;;;;;;;7.40;6.73;;;-7.40;99.90;;;;;;5079919;28;20652;-69
2022/08/17 02:05:35;;;;;;;7.27;6.60;;;-7.90;99.90;;;;;;5079725;28;20183;-70
2022/08/17 02:08:02;;;;;;;7.70;7.03;;;-9.00;99.90;;;;;;5080188;28;20202;-69
2022/08/17 02:10:29;;;;;;;7.43;6.03;;;-7.30;99.90;;;;;;5079960;28;20290;-70
2022/08/17 02:12:55;;;;;;;8.77;6.50;;;-6.10;99.90;;;;;;5086004;28;20547;-69
2022/08/17 02:15:21;;;;;;;8.20;7.50;;;-6.50;99.90;;;;;;5080451;28;20262;-69
2022/08/17 02:17:47;;;;;;;7.57;6.60;;;-5.90;99.90;;;;;;5080064;28;20268;-69
2022/08/17 02:20:13;;;;;;;6.87;6.37;;;-6.40;99.90;;;;;;5079655;28;20586;-69
2022/08/17 02:22:43;;;;;;;7.80;7.20;;;-5.10;99.90;;;;;;5078969;28;20179;-69
2022/08/17 02:25:11;;;;;;;9.63;7.70;;;-4.20;99.90;;;;;;5079050;28;20522;-69
2022/08/17 02:27:38;;;;;;;7.33;6.83;;;-4.60;99.90;;;;;;5085305;28;20266;-69
2022/08/17 02:30:05;;;;;;;8.10;6.50;;;-4.30;99.90;;;;;;5078354;28;20210;-69
2022/08/17 02:32:31;;;;;;;7.83;7.23;;;-4.10;99.90;;;;;;5086691;28;20248;-69
2022/08/17 02:34:57;;;;;;;8.23;7.30;;;-2.90;99.90;;;;;;5080449;28;20594;-70
2022/08/17 02:37:25;;;;;;;7.07;6.57;;;-2.80;99.90;;;;;;5087406;28;20259;-70
2022/08/17 02:39:50;;;;;;;7.70;7.00;;;-2.00;99.90;;;;;;5086775;28;20183;-70
2022/08/17 02:42:17;;;;;;;8.63;6.80;;;-3.60;99.90;;;;;;5079352;28;20183;-70
2022/08/17 02:44:43;;;;;;;8.77;7.93;;;-4.40;99.90;;;;;;5083908;28;20201;-69
2022/08/17 02:47:10;;;;;;;9.23;8.20;;;-3.70;99.90;;;;;;5079522;28;20591;-70
2022/08/17 02:49:36;;;;;;;6.73;6.23;;;-4.90;99.90;;;;;;5079785;28;20215;-68
2022/08/17 02:52:04;;;;;;;6.83;6.17;;;-4.40;99.90;;;;;;5078909;28;20232;-68
2022/08/17 02:54:30;;;;;;;8.37;7.47;;;-4.10;99.90;;;;;;5079567;28;20198;-69
2022/08/17 02:56:55;;;;;;;10.83;8.33;;;-2.60;99.90;;;;;;5077996;28;20203;-69
2022/08/17 02:59:23;;;;;;;7.53;6.83;;;-2.70;99.90;;;;;;5078133;28;20199;-69
2022/08/17 03:01:49;;;;;;;10.40;9.03;;;-3.70;99.90;;;;;;5079196;28;20245;-69
2022/08/17 03:04:15;;;;;;;9.27;8.33;;;-4.90;99.90;;;;;;5079372;28;20598;-68
2022/08/17 03:06:41;;;;;;;9.40;8.10;;;-4.50;99.90;;;;;;5078776;28;20184;-70
2022/08/17 03:09:07;;;;;;;11.00;10.00;;;-5.20;99.90;;;;;;5078804;28;20266;-70
2022/08/17 03:11:33;;;;;;;9.03;8.33;;;-3.80;99.90;;;;;;5079520;28;20195;-69
2022/08/17 03:13:59;;;;;;;9.87;8.97;;;-6.40;99.90;;;;;;5080247;28;20183;-70
2022/08/17 03:16:25;;;;;;;9.57;8.73;;;-5.60;99.90;;;;;;5078507;28;20179;-69
2022/08/17 03:18:51;;;;;;;9.73;8.83;;;-3.40;99.90;;;;;;5079072;28;20480;-68
2022/08/17 03:21:16;;;;;;;10.03;9.00;;;-2.30;99.90;;;;;;5079102;28;20188;-69
2022/08/17 03:23:42;;;;;;;10.27;9.17;;;-2.70;99.90;;;;;;5078520;28;20186;-69
2022/08/17 03:26:09;;;;;;;9.53;8.60;;;-1.70;99.90;;;;;;5078127;28;20214;-71
2022/08/17 03:28:36;;;;;;;12.77;8.03;;;-1.10;99.90;;;;;;5078239;28;20175;-70
2022/08/17 03:31:03;;;;;;;8.80;7.97;;;-2.90;99.90;;;;;;5077881;28;20606;-69
2022/08/17 03:33:29;;;;;;;8.47;7.83;;;-2.10;99.90;;;;;;5077631;28;20605;-69
2022/08/17 03:35:55;;;;;;;7.13;6.70;;;-1.40;99.90;;;;;;5077466;28;20213;-70
2022/08/17 03:38:20;;;;;;;9.43;8.30;;;-2.20;99.90;;;;;;5078685;28;20508;-70
2022/08/17 03:40:48;;;;;;;8.23;7.43;;;-1.70;99.90;;;;;;5078395;28;20182;-70
2022/08/17 03:43:14;;;;;;;8.70;7.70;;;-3.70;99.90;;;;;;5077989;28;20614;-69
2022/08/17 03:57:06;;;;;;;9.07;8.47;;;21.90;99.90;;;;;;5077950;28;20248;-71
2022/08/17 03:59:32;;;;;;;10.93;8.90;;;21.90;99.90;;;;;;5078575;28;20187;-75
2022/08/17 04:02:06;;;;;;;8.90;8.17;;;21.80;99.90;;;;;;5078241;28;20591;-76
2022/08/17 04:04:32;;;;;;;8.30;7.70;;;21.90;99.90;;;;;;5078165;28;20167;-78
2022/08/17 04:06:58;;;;;;;9.17;8.37;;;21.70;99.90;;;;;;5077801;28;20186;-77
2022/08/17 04:09:24;;;;;;;8.60;7.70;;;22.00;99.90;;;;;;5077685;28;20254;-75
2022/08/17 04:11:50;;;;;;;8.60;7.77;;;22.00;99.90;;;;;;5078281;28;20541;-79
2022/08/17 04:14:16;;;;;;;8.93;8.13;;;22.10;99.90;;;;;;5077202;28;20252;-78
2022/08/17 04:16:42;;;;;;;8.17;7.60;;;21.90;99.90;;;;;;5077576;28;20201;-79
2022/08/17 04:19:08;;;;;;;7.43;6.83;;;21.80;99.90;;;;;;5076746;28;20858;-78
2022/08/17 04:21:34;;;;;;;8.10;7.43;;;22.00;99.90;;;;;;5077236;28;20178;-73
2022/08/17 04:24:00;;;;;;;7.40;6.70;;;21.90;99.90;;;;;;5077167;28;20236;-71
2022/08/17 04:26:27;;;;;;;8.00;7.20;;;22.00;99.90;;;;;;5077723;28;20178;-73
2022/08/17 04:28:53;;;;;;;7.63;7.07;;;22.00;99.90;;;;;;5077416;28;20624;-72
2022/08/17 04:31:19;;;;;;;7.73;7.13;;;22.00;99.90;;;;;;5077386;28;20179;-71
2022/08/17 04:33:45;;;;;;;7.33;6.73;;;21.90;99.90;;;;;;5077035;28;20265;-75
2022/08/17 04:36:14;;;;;;;8.87;7.83;;;21.90;99.90;;;;;;5076529;28;20258;-74
2022/08/17 04:38:42;;;;;;;9.00;7.30;;;21.80;99.90;;;;;;5076861;28;20518;-73
2022/08/17 04:43:57;;;;;;;7.43;6.93;;;21.70;99.90;;;;;;5076880;28;20189;-77
2022/08/17 04:46:27;;;;;;;7.60;6.90;;;21.60;99.90;;;;;;5081529;28;20164;-77
2022/08/17 04:48:55;;;;;;;8.10;7.40;;;21.60;99.90;;;;;;5082698;28;20698;-75
2022/08/17 04:51:26;;;;;;;8.63;7.83;;;21.60;99.90;;;;;;5076800;28;20244;-80
2022/08/17 04:53:58;;;;;;;7.50;6.90;;;21.70;99.90;;;;;;5076570;28;20266;-76
2022/08/17 04:56:26;;;;;;;8.23;7.63;;;21.70;99.90;;;;;;5076055;28;20183;-79
2022/08/17 04:58:55;;;;;;;7.80;7.10;;;21.70;99.90;;;;;;5076998;28;20253;-76
2022/08/17 05:01:23;;;;;;;7.70;6.63;;;21.60;99.90;;;;;;5077240;28;20211;-78
2022/08/17 05:03:48;;;;;;;7.17;6.57;;;21.60;99.90;;;;;;5077700;28;20181;-77
2022/08/17 05:06:14;;;;;;;7.10;6.60;;;21.50;99.90;;;;;;5076524;28;20266;-77
2022/08/17 05:08:40;;;;;;;11.60;7.47;;;21.50;99.90;;;;;;5076303;28;20206;-77
2022/08/17 05:11:07;;;;;;;7.77;7.17;;;21.40;99.90;;;;;;5076540;28;20229;-74
2022/08/17 05:13:33;;;;;;;7.40;6.80;;;21.40;99.90;;;;;;5082434;28;20175;-75
2022/08/17 05:16:02;;;;;;;7.33;6.70;;;21.30;99.90;;;;;;5076427;28;20179;-76
2022/08/17 05:18:29;;;;;;;8.07;7.47;;;21.10;99.90;;;;;;5080714;28;20207;-76
2022/08/17 05:20:55;;;;;;;8.27;7.30;;;20.90;99.90;;;;;;5074583;28;20206;-77
2022/08/17 05:23:23;;;;;;;8.97;8.27;;;20.50;99.90;;;;;;5076313;28;20492;-77
2022/08/17 05:25:53;;;;;;;9.30;8.67;;;20.10;99.90;;;;;;5075906;28;20194;-74
2022/08/17 05:28:20;;;;;;;9.77;8.73;;;19.30;99.90;;;;;;5076212;28;20179;-76
2022/08/17 05:30:47;;;;;;;8.60;8.00;;;18.40;99.90;;;;;;5089913;28;20514;-75
2022/08/17 05:33:15;;;;;;;8.97;8.27;;;17.70;99.90;;;;;;5079850;28;20179;-74
2022/08/17 05:35:45;;;;;;;9.67;8.77;;;17.30;99.90;;;;;;5077360;28;20186;-75
2022/08/17 05:38:13;;;;;;;9.83;8.90;;;17.10;99.90;;;;;;5078439;28;20191;-74
2022/08/17 05:40:40;;;;;;;9.37;8.57;;;16.30;99.90;;;;;;5077013;28;20329;-72
2022/08/17 05:43:12;;;;;;;10.23;9.33;;;16.30;99.90;;;;;;5081973;28;20598;-74
2022/08/17 05:45:45;;;;;;;9.53;8.83;;;16.60;99.90;;;;;;5076646;28;20183;-71
2022/08/17 05:48:11;;;;;;;10.00;9.00;;;16.50;99.90;;;;;;5076524;28;20186;-76
2022/08/17 05:51:05;;;;;;;10.10;8.53;;;16.40;99.90;;;;;;5076421;28;20211;-76
2022/08/17 05:53:54;;;;;;;10.57;9.80;;;16.00;99.90;;;;;;5076551;28;20462;-77
2022/08/17 05:56:45;;;;;;;12.63;10.00;;;15.80;99.90;;;;;;5077139;28;20179;-76
2022/08/17 05:59:19;;;;;;;11.07;10.07;;;15.90;99.90;;;;;;5076038;28;20236;-72
2022/08/17 06:01:51;;;;;;;10.93;9.93;;;12.40;99.90;;;;;;5075768;28;20206;-77
2022/08/17 06:04:30;;;;;;;10.67;9.40;;;11.60;99.90;;;;;;5089373;28;20215;-69
2022/08/17 06:07:27;;;;;;;11.70;9.57;;;12.70;99.90;;;;;;5083089;28;20206;-67
2022/08/17 06:10:25;;;;;;;12.00;10.97;;;16.50;99.90;;;;;;5080967;28;20660;-70
2022/08/17 06:13:15;;;;;;;9.20;8.50;;;16.80;99.90;;;;;;5067971;28;20256;-69
2022/08/17 06:15:50;;;;;;;10.77;9.83;;;16.20;99.90;;;;;;5075451;28;20171;-69
2022/08/17 06:18:19;;;;;;;11.87;10.80;;;15.40;99.90;;;;;;5082210;28;20605;-73
2022/08/17 06:20:55;;;;;;;11.20;10.27;;;16.20;99.90;;;;;;5081132;28;20182;-69
2022/08/17 06:23:33;;;;;;;11.70;10.60;;;15.50;99.90;;;;;;5075647;28;20182;-68
2022/08/17 06:26:09;;;;;;;10.77;9.77;;;15.50;99.90;;;;;;5075732;28;20175;-70
2022/08/17 06:28:56;;;;;;;11.73;10.10;;;15.10;99.90;;;;;;5075723;28;20179;-73
2022/08/17 06:31:27;;;;;;;11.33;10.43;;;20.00;99.90;;;;;;5079358;28;20550;-70
2022/08/17 06:33:59;;;;;;;13.03;11.87;;;20.10;99.90;;;;;;5078170;28;20187;-70
2022/08/17 06:36:43;;;;;;;11.90;10.90;;;20.10;99.90;;;;;;5079244;28;20222;-70
2022/08/17 06:39:17;;;;;;;13.87;12.57;;;20.00;99.90;;;;;;5079925;28;20460;-72
2022/08/17 06:41:59;;;;;;;13.90;12.70;;;20.10;99.90;;;;;;5077694;28;20473;-70
2022/08/17 06:44:28;;;;;;;12.37;11.50;;;20.10;99.90;;;;;;5079838;28;20179;-70
2022/08/17 06:47:04;;;;;;;13.13;11.93;;;20.10;99.90;;;;;;5079567;28;20193;-67
2022/08/17 06:50:15;;;;;;;11.60;10.70;;;20.10;99.90;;;;;;5078318;28;20198;-69
2022/08/17 06:52:56;;;;;;;13.83;12.70;;;20.10;99.90;;;;;;5083767;28;20583;-68
2022/08/17 06:55:33;;;;;;;14.23;13.03;;;20.10;99.90;;;;;;5079607;28;20202;-70
2022/08/17 06:58:05;;;;;;;14.77;13.43;;;20.00;99.90;;;;;;5084631;28;20618;-68
2022/08/17 07:00:39;;;;;;;16.77;15.17;;;19.90;99.90;;;;;;5087907;28;20489;-69
2022/08/17 07:03:17;;;;;;;16.67;15.17;;;19.90;99.90;;;;;;5078635;28;20232;-71
2022/08/17 07:05:46;;;;;;;15.30;14.07;;;19.80;99.90;;;;;;5078191;28;20207;-68
2022/08/17 07:08:41;;;;;;;15.97;14.47;;;19.60;99.90;;;;;;5093136;28;20187;-68
2022/08/17 07:11:22;;;;;;;19.17;17.03;;;19.50;99.90;;;;;;5079316;28;20214;-67
2022/08/17 07:14:00;;;;;;;18.03;16.50;;;19.40;99.90;;;;;;5079128;28;20183;-73
2022/08/17 07:16:49;;;;;;;19.63;16.47;;;19.20;99.90;;;;;;5078591;28;20182;-67
2022/08/17 07:19:17;;;;;;;18.37;16.57;;;19.10;99.90;;;;;;5078813;28;20182;-69
2022/08/17 07:21:48;;;;;;;18.73;16.90;;;18.90;99.90;;;;;;5078547;28;20909;-66
2022/08/17 07:24:34;;;;;;;20.87;18.27;;;18.50;99.90;;;;;;5078331;28;20212;-70
2022/08/17 07:27:15;;;;;;;20.37;18.47;;;17.90;99.90;;;;;;5078571;28;20179;-71
2022/08/17 07:29:49;;;;;;;22.00;19.80;;;16.60;99.90;;;;;;5078291;28;20175;-66
2022/08/17 07:32:23;;;;;;;22.50;20.40;;;15.30;99.90;;;;;;5093189;28;20198;-70
2022/08/17 07:35:14;;;;;;;24.20;21.87;;;3.10;99.90;;;;;;5078747;28;20477;-71
2022/08/17 07:37:42;;;;;;;23.30;21.27;;;2.90;99.90;;;;;;5078643;28;20339;-72
2022/08/17 07:40:18;;;;;;;23.70;20.97;;;2.10;99.90;;;;;;5078100;28;20183;-72
2022/08/17 07:43:20;;;;;;;25.17;22.93;;;1.60;99.90;;;;;;5077391;28;20195;-73
2022/08/17 07:48:53;;;;;;;25.43;23.20;;;0.70;99.90;;;;;;5077540;28;20655;-69
2022/08/17 07:51:28;;;;;;;24.93;22.00;;;1.00;99.90;;;;;;5077503;28;20295;-71
2022/08/17 07:54:14;;;;;;;26.87;24.07;;;1.10;99.90;;;;;;5077292;28;20186;-71
2022/08/17 07:56:39;;;;;;;25.67;23.03;;;0.30;99.90;;;;;;5077095;28;20569;-72
2022/08/17 07:59:08;;;;;;;25.43;23.27;;;1.50;99.90;;;;;;5078069;28;20190;-73
2022/08/17 08:01:36;;;;;;;26.77;24.27;;;0.60;99.90;;;;;;5076873;28;20229;-74
2022/08/17 08:04:24;;;;;;;27.67;24.70;;;0.90;99.90;;;;;;5079381;28;20171;-75
2022/08/17 08:06:51;;;;;;;26.67;21.37;;;1.10;99.90;;;;;;5078045;28;20187;-74
2022/08/17 08:09:49;;;;;;;22.90;21.00;;;0.50;99.90;;;;;;5091951;28;20229;-70
2022/08/17 08:12:37;;;;;;;24.17;21.77;;;0.50;99.90;;;;;;5067810;28;20255;-73
2022/08/17 08:15:14;;;;;;;25.67;22.57;;;0.50;99.90;;;;;;5077999;28;20586;-68
2022/08/17 08:17:56;;;;;;;23.27;20.93;;;0.00;99.90;;;;;;5077419;28;20306;-71
2022/08/17 08:21:10;;;;;;;26.27;22.77;;;0.50;99.90;;;;;;5077357;28;20175;-70
2022/08/17 08:23:41;;;;;;;30.97;23.37;;;0.30;99.90;;;;;;5068095;28;20209;-70
2022/08/17 08:26:10;;;;;;;25.93;21.50;;;0.20;99.90;;;;;;5076128;28;20187;-71
2022/08/17 08:29:00;;;;;;;22.40;20.43;;;0.50;99.90;;;;;;5083452;28;20189;-76
2022/08/17 08:31:45;;;;;;;22.03;20.03;;;0.70;99.90;;;;;;5077438;28;20191;-71
2022/08/17 08:34:44;;;;;;;26.07;23.40;;;1.40;99.90;;;;;;5077722;28;20197;-74
2022/08/17 08:37:13;;;;;;;25.53;22.63;;;0.30;99.90;;;;;;5052749;28;20265;-76
2022/08/17 08:40:19;;;;;;;26.10;23.53;;;0.50;99.90;;;;;;5077713;28;20176;-72
2022/08/17 08:43:12;;;;;;;25.17;22.80;;;0.90;99.90;;;;;;5076543;28;20186;-69
2022/08/17 08:46:16;;;;;;;24.60;22.00;;;0.50;99.90;;;;;;5080696;28;20475;-68
2022/08/17 08:49:00;;;;;;;24.03;22.03;;;1.20;99.90;;;;;;5076561;28;20595;-72
2022/08/17 08:51:42;;;;;;;24.33;22.23;;;0.40;99.90;;;;;;5088469;28;20179;-76
2022/08/17 08:54:27;;;;;;;26.30;23.53;;;0.20;99.90;;;;;;5076175;28;20640;-74
2022/08/17 08:57:41;;;;;;;25.10;22.83;;;0.40;99.90;;;;;;5076840;28;20293;-72
2022/08/17 09:00:16;;;;;;;24.37;21.87;;;0.70;99.90;;;;;;5068026;28;20287;-68
2022/08/17 09:03:18;;;;;;;21.83;19.87;;;-1.30;99.90;;;;;;5076226;28;20183;-70
2022/08/17 09:05:52;;;;;;;24.73;22.47;;;-0.50;99.90;;;;;;5055326;28;20197;-70
2022/08/17 09:08:29;;;;;;;24.73;22.40;;;-1.60;99.90;;;;;;5077789;28;20182;-70
2022/08/17 09:11:21;;;;;;;25.83;23.37;;;-1.40;99.90;;;;;;5082454;28;20175;-72
2022/08/17 09:14:05;;;;;;;26.23;23.43;;;-1.00;99.90;;;;;;5073876;28;20247;-75
2022/08/17 09:16:41;;;;;;;27.13;24.47;;;-1.20;99.90;;;;;;5076873;28;20175;-73
2022/08/17 09:19:30;;;;;;;25.20;22.73;;;-0.50;99.90;;;;;;5077047;28;20635;-76
2022/08/17 09:22:36;;;;;;;30.43;27.63;;;-0.70;99.90;;;;;;5076409;28;20201;-72
2022/08/17 09:25:20;;;;;;;27.83;25.20;;;11.00;99.90;;;;;;5075538;28;20207;-73
2022/08/17 09:27:51;;;;;;;24.50;22.03;;;18.80;99.90;;;;;;5076432;28;20190;-72
2022/08/17 09:30:18;;;;;;;26.77;24.27;;;19.10;99.90;;;;;;5076785;28;20657;-69
2022/08/17 09:32:48;;;;;;;26.40;24.00;;;19.30;99.90;;;;;;5074294;28;20179;-72
2022/08/17 09:35:24;;;;;;;26.90;24.60;;;19.20;99.90;;;;;;5076874;28;20179;-70
2022/08/17 09:38:01;;;;;;;30.03;27.33;;;18.10;99.90;;;;;;5077236;28;20190;-70
2022/08/17 09:40:39;;;;;;;29.77;26.97;;;18.50;99.90;;;;;;5076376;28;20171;-71
2022/08/17 09:43:18;;;;;;;26.93;24.43;;;18.10;99.90;;;;;;5075546;28;20187;-76
2022/08/17 09:46:00;;;;;;;28.63;25.87;;;18.30;99.90;;;;;;5076232;28;20189;-68
2022/08/17 09:48:40;;;;;;;27.63;25.23;;;22.20;99.90;;;;;;5075712;28;20178;-74
2022/08/17 09:51:12;;;;;;;25.73;23.53;;;22.30;99.90;;;;;;5076712;28;20178;-74
2022/08/17 09:53:39;;;;;;;24.83;22.37;;;22.40;99.90;;;;;;5079619;28;20182;-71
2022/08/17 09:56:08;;;;;;;25.70;23.10;;;22.50;99.90;;;;;;5076224;28;20179;-73
2022/08/17 09:59:12;;;;;;;26.90;24.50;;;22.60;99.90;;;;;;5096788;28;20229;-74
2022/08/17 10:01:46;;;;;;;25.30;22.87;;;22.60;99.90;;;;;;5075951;28;20203;-73
2022/08/17 10:04:25;;;;;;;22.47;20.47;;;22.60;99.90;;;;;;5077415;28;20257;-72
2022/08/17 10:07:04;;;;;;;22.23;20.30;;;22.50;99.90;;;;;;5077846;28;20183;-72
2022/08/17 10:09:45;;;;;;;18.10;16.70;;;22.30;99.90;;;;;;5080022;28;20175;-71
2022/08/17 10:12:23;;;;;;;16.67;14.97;;;19.80;99.90;;;;;;5079652;28;20172;-68
2022/08/17 10:14:55;;;;;;;17.87;16.27;;;23.50;99.90;;;;;;5080050;28;20225;-71
2022/08/17 10:17:37;;;;;;;18.20;16.63;;;23.50;99.90;;;;;;5079681;28;20195;-77
2022/08/17 10:20:03;;;;;;;17.30;15.83;;;23.50;99.90;;;;;;5080200;28;20171;-69
2022/08/17 10:28:11;;;;;;;15.07;13.67;;;23.60;99.90;;;;;;5079961;28;20202;-75
2022/08/17 10:30:52;;;;;;;10.37;9.57;;;23.60;99.90;;;;;;5079417;28;20463;-68
2022/08/17 10:33:26;;;;;;;9.87;9.07;;;23.60;99.90;;;;;;5079681;28;20236;-75
2022/08/17 10:36:27;;;;;;;14.87;10.67;;;23.60;99.90;;;;;;5079980;28;20204;-75
2022/08/17 10:39:18;;;;;;;10.90;9.90;;;23.50;99.90;;;;;;5078664;28;20297;-73
2022/08/17 10:41:51;;;;;;;10.73;9.93;;;23.40;99.90;;;;;;5077883;28;20182;-75
2022/08/17 10:44:36;;;;;;;12.50;11.57;;;23.30;99.90;;;;;;5085314;28;20235;-75
2022/08/17 10:47:07;;;;;;;12.20;11.10;;;23.20;99.90;;;;;;5078831;28;20175;-75
2022/08/17 10:49:48;;;;;;;13.63;12.57;;;23.30;99.90;;;;;;5078627;28;20282;-75
2022/08/17 10:52:20;;;;;;;13.40;12.30;;;23.30;99.90;;;;;;5078629;28;20183;-74
2022/08/17 10:54:55;;;;;;;17.00;13.33;;;23.40;99.90;;;;;;5076469;28;20270;-76
2022/08/17 10:57:32;;;;;;;17.73;12.60;;;23.40;99.90;;;;;;5079511;28;20214;-75
2022/08/17 11:00:00;;;;;;;14.80;13.57;;;23.60;99.90;;;;;;5078805;28;20206;-76
2022/08/17 11:02:38;;;;;;;12.97;11.97;;;23.70;99.90;;;;;;5079916;28;20254;-77
2022/08/17 11:05:16;;;;;;;15.60;14.13;;;23.70;99.90;;;;;;5079025;28;20175;-73
2022/08/17 11:08:15;;;;;;;15.20;13.70;;;23.60;99.90;;;;;;5078744;28;20186;-71
2022/08/17 11:10:49;;;;;;;15.60;13.93;;;23.40;99.90;;;;;;5049682;28;20196;-76
2022/08/17 11:13:22;;;;;;;14.50;13.20;;;23.30;99.90;;;;;;5078864;28;20182;-76
2022/08/17 11:16:16;;;;;;;14.93;13.90;;;23.30;99.90;;;;;;5078331;28;20191;-75
2022/08/17 11:19:09;;;;;;;15.93;14.30;;;23.30;99.90;;;;;;5079462;28;20256;-71
2022/08/17 11:21:53;;;;;;;14.60;13.20;;;23.20;99.90;;;;;;5086001;28;20175;-72
2022/08/17 11:24:38;;;;;;;16.13;12.37;;;23.40;99.90;;;;;;5078806;28;20652;-67
2022/08/17 11:27:10;;;;;;;11.77;10.77;;;22.80;99.90;;;;;;5078577;28;20179;-68
2022/08/17 11:29:48;;;;;;;11.80;10.80;;;22.20;99.90;;;;;;5078567;28;20262;-68
2022/08/17 11:32:38;;;;;;;10.80;10.00;;;-10.40;99.90;;;;;;5089925;28;20233;-69
2022/08/17 11:35:10;;;;;;;11.53;10.53;;;-8.80;99.90;;;;;;5078258;28;20636;-71
2022/08/17 11:38:05;;;;;;;9.40;8.70;;;-5.70;99.90;;;;;;5083120;28;20203;-73
2022/08/17 11:40:58;;;;;;;9.70;9.00;;;-9.50;99.90;;;;;;5056500;28;20187;-69
2022/08/17 11:43:30;;;;;;;9.77;9.00;;;-12.80;99.90;;;;;;5093918;28;20485;-69
2022/08/17 11:46:22;;;;;;;8.87;8.27;;;-15.80;99.90;;;;;;5078493;28;20202;-67
2022/08/17 11:51:54;;;;;;;8.87;8.07;;;-40.00;97.70;;;;;;5077580;28;20280;-69
2022/08/17 11:54:29;;;;;;;8.17;7.57;;;-40.00;95.00;;;;;;5075770;28;20195;-67
2022/08/17 11:56:57;;;;;;;8.93;8.10;;;-40.00;93.30;;;;;;5078864;28;20182;-68
2022/08/17 11:59:32;;;;;;;9.27;8.63;;;-40.00;92.00;;;;;;5077588;28;20191;-68
2022/08/17 12:02:00;;;;;;;8.63;7.93;;;-40.00;93.20;;;;;;5078207;28;20196;-68
2022/08/17 12:04:29;;;;;;;7.67;7.17;;;-40.00;89.20;;;;;;5076653;28;20179;-67
2022/08/17 12:07:17;;;;;;;8.43;7.83;;;-40.00;86.70;;;;;;5077741;28;20175;-69
2022/08/17 12:09:48;;;;;;;8.63;7.77;;;-40.00;90.20;;;;;;5077987;28;20174;-68
2022/08/17 12:12:18;;;;;;;10.50;9.60;;;-40.00;88.20;;;;;;5081999;28;20187;-69
2022/08/17 12:14:52;;;;;;;6.97;6.47;;;-40.00;90.40;;;;;;5077352;28;20188;-67
2022/08/17 12:17:24;;;;;;;8.17;7.60;;;-40.00;83.50;;;;;;5080581;28;20293;-69
2022/08/17 12:19:51;;;;;;;7.90;7.40;;;-40.00;85.30;;;;;;5077231;28;20252;-71
2022/08/17 12:22:30;;;;;;;8.50;7.90;;;-40.00;86.70;;;;;;5077549;28;20171;-69
2022/08/17 12:25:19;;;;;;;8.60;8.00;;;-40.00;90.10;;;;;;5077822;28;20175;-71
2022/08/17 12:27:48;;;;;;;8.33;7.73;;;-40.00;81.50;;;;;;5081536;28;20244;-69
2022/08/17 12:30:18;;;;;;;9.47;8.77;;;-40.00;74.80;;;;;;5077160;28;20213;-72
2022/08/17 12:32:47;;;;;;;8.50;7.80;;;-40.00;73.90;;;;;;5077755;28;20210;-71
2022/08/17 12:35:34;;;;;;;8.80;8.20;;;-40.00;76.60;;;;;;5076642;28;20414;-72
2022/08/17 12:38:01;;;;;;;8.97;8.37;;;-40.00;85.30;;;;;;5076837;28;20199;-70
2022/08/17 12:40:32;;;;;;;8.20;7.70;;;-40.00;84.90;;;;;;5076937;28;20653;-67
2022/08/17 12:43:05;;;;;;;8.73;8.03;;;-40.00;80.40;;;;;;5077041;28;20202;-68
2022/08/17 12:45:38;;;;;;;10.13;9.10;;;-40.00;81.90;;;;;;5078177;28;20539;-68
2022/08/17 12:48:12;;;;;;;8.77;8.10;;;-40.00;79.80;;;;;;5077036;28;20195;-69
2022/08/17 12:50:43;;;;;;;8.97;8.43;;;-40.00;83.10;;;;;;5077155;28;20202;-69
2022/08/17 12:53:16;;;;;;;8.20;7.70;;;-40.00;84.50;;;;;;5077085;28;20242;-70
2022/08/17 12:55:43;;;;;;;7.60;7.13;;;-40.00;84.60;;;;;;5076845;28;20175;-68
2022/08/17 12:58:23;;;;;;;7.20;6.73;;;-40.00;83.50;;;;;;5076371;28;20203;-70
2022/08/17 13:00:57;;;;;;;8.77;7.87;;;-40.00;81.50;;;;;;5076572;28;20191;-67
2022/08/17 13:03:29;;;;;;;8.23;7.53;;;-40.00;84.00;;;;;;5077274;28;20178;-69
2022/08/17 13:05:59;;;;;;;9.23;8.60;;;-40.00;83.70;;;;;;5076797;28;20250;-67
2022/08/17 13:08:30;;;;;;;8.10;7.50;;;-40.00;87.60;;;;;;5077342;28;20206;-67
2022/08/17 13:11:00;;;;;;;8.03;7.53;;;-40.00;89.50;;;;;;5077489;28;20183;-69
2022/08/17 13:13:37;;;;;;;7.53;7.10;;;-40.00;86.90;;;;;;5076095;28;20175;-67
2022/08/17 13:16:15;;;;;;;8.87;8.27;;;-40.00;87.20;;;;;;5076354;28;20517;-67
2022/08/17 13:18:44;;;;;;;8.47;7.97;;;-40.00;90.40;;;;;;5076001;28;20624;-68
2022/08/17 13:21:25;;;;;;;7.83;7.33;;;-40.00;90.20;;;;;;5075540;28;20213;-68
2022/08/17 13:24:06;;;;;;;9.07;8.27;;;-40.00;88.60;;;;;;5080937;28;20171;-68
2022/08/17 13:26:32;;;;;;;9.27;8.57;;;-40.00;90.10;;;;;;5076452;28;20585;-68
2022/08/17 13:28:58;;;;;;;8.47;7.87;;;-40.00;89.70;;;;;;5076659;28;20241;-69
2022/08/17 13:31:26;;;;;;;7.40;6.90;;;-40.00;86.10;;;;;;5076466;28;20191;-68
2022/08/17 13:34:34;;;;;;;8.63;7.87;;;-40.00;83.20;;;;;;5076943;28;20640;-67
2022/08/17 13:37:25;;;;;;;8.37;7.80;;;-40.00;87.00;;;;;;5068749;28;20298;-71
2022/08/17 13:39:53;;;;;;;8.23;7.63;;;-40.00;90.70;;;;;;5078648;28;20190;-70